sensor_id;sensor_type;location;lat;lon;timestamp;temperature;humidity
1700;DHT22;847;48.058;7.810;2022-09-02T00:01:16;19.30;82.80
1700;DHT22;847;48.058;7.810;2022-09-02T00:03:45;19.20;82.80
1700;DHT22;847;48.058;7.810;2022-09-02T00:06:13;19.20;83.30
1700;DHT22;847;48.058;7.810;2022-09-02T00:08:41;19.20;83.70
1700;DHT22;847;48.058;7.810;2022-09-02T00:11:09;19.20;83.90
1700;DHT22;847;48.058;7.810;2022-09-02T00:13:38;19.10;83.40
1700;DHT22;847;48.058;7.810;2022-09-02T00:16:05;19.10;83.10
1700;DHT22;847;48.058;7.810;2022-09-02T00:18:33;19.00;83.30
1700;DHT22;847;48.058;7.810;2022-09-02T00:21:00;19.00;83.50
1700;DHT22;847;48.058;7.810;2022-09-02T00:23:27;19.00;83.80
1700;DHT22;847;48.058;7.810;2022-09-02T00:25:54;18.90;84.10
1700;DHT22;847;48.058;7.810;2022-09-02T00:28:21;18.90;84.10
1700;DHT22;847;48.058;7.810;2022-09-02T00:30:47;18.90;84.30
1700;DHT22;847;48.058;7.810;2022-09-02T00:33:15;18.90;83.80
1700;DHT22;847;48.058;7.810;2022-09-02T00:35:43;18.90;83.80
1700;DHT22;847;48.058;7.810;2022-09-02T00:38:10;18.90;84.20
1700;DHT22;847;48.058;7.810;2022-09-02T00:40:37;18.80;84.10
1700;DHT22;847;48.058;7.810;2022-09-02T00:43:06;18.70;84.50
1700;DHT22;847;48.058;7.810;2022-09-02T00:45:33;18.60;85.00
1700;DHT22;847;48.058;7.810;2022-09-02T00:48:00;18.60;85.40
1700;DHT22;847;48.058;7.810;2022-09-02T00:50:30;18.50;85.90
1700;DHT22;847;48.058;7.810;2022-09-02T00:53:04;18.40;86.50
1700;DHT22;847;48.058;7.810;2022-09-02T00:55:35;18.30;86.60
1700;DHT22;847;48.058;7.810;2022-09-02T00:58:06;18.30;86.50
1700;DHT22;847;48.058;7.810;2022-09-02T01:00:37;18.30;86.60
1700;DHT22;847;48.058;7.810;2022-09-02T01:03:09;18.30;86.90
1700;DHT22;847;48.058;7.810;2022-09-02T01:05:40;18.20;86.70
1700;DHT22;847;48.058;7.810;2022-09-02T01:08:11;18.10;87.00
1700;DHT22;847;48.058;7.810;2022-09-02T01:10:38;18.10;87.00
1700;DHT22;847;48.058;7.810;2022-09-02T01:13:09;18.00;86.90
1700;DHT22;847;48.058;7.810;2022-09-02T01:15:39;18.00;87.50
1700;DHT22;847;48.058;7.810;2022-09-02T01:18:09;18.00;87.30
1700;DHT22;847;48.058;7.810;2022-09-02T01:20:38;18.00;87.10
1700;DHT22;847;48.058;7.810;2022-09-02T01:23:06;17.90;86.90
1700;DHT22;847;48.058;7.810;2022-09-02T01:25:34;17.90;86.80
1700;DHT22;847;48.058;7.810;2022-09-02T01:28:03;17.90;86.50
1700;DHT22;847;48.058;7.810;2022-09-02T01:30:31;17.90;86.30
1700;DHT22;847;48.058;7.810;2022-09-02T01:33:00;17.90;86.20
1700;DHT22;847;48.058;7.810;2022-09-02T01:35:28;17.90;85.90
1700;DHT22;847;48.058;7.810;2022-09-02T01:37:57;17.90;85.20
1700;DHT22;847;48.058;7.810;2022-09-02T01:40:27;18.00;83.40
1700;DHT22;847;48.058;7.810;2022-09-02T01:42:57;18.10;82.50
1700;DHT22;847;48.058;7.810;2022-09-02T01:45:24;18.20;82.30
1700;DHT22;847;48.058;7.810;2022-09-02T01:47:52;18.30;80.90
1700;DHT22;847;48.058;7.810;2022-09-02T01:50:19;18.40;79.70
1700;DHT22;847;48.058;7.810;2022-09-02T01:52:46;18.20;82.30
1700;DHT22;847;48.058;7.810;2022-09-02T01:55:13;17.90;84.60
1700;DHT22;847;48.058;7.810;2022-09-02T01:57:41;17.80;84.80
1700;DHT22;847;48.058;7.810;2022-09-02T02:00:10;17.50;86.20
1700;DHT22;847;48.058;7.810;2022-09-02T02:02:37;17.20;87.90
1700;DHT22;847;48.058;7.810;2022-09-02T02:05:05;17.20;88.20
1700;DHT22;847;48.058;7.810;2022-09-02T02:07:31;17.30;88.80
1700;DHT22;847;48.058;7.810;2022-09-02T02:09:58;17.10;89.10
1700;DHT22;847;48.058;7.810;2022-09-02T02:12:27;17.00;89.50
1700;DHT22;847;48.058;7.810;2022-09-02T02:14:55;17.10;90.00
1700;DHT22;847;48.058;7.810;2022-09-02T02:17:22;17.10;89.60
1700;DHT22;847;48.058;7.810;2022-09-02T02:19:49;17.10;89.70
1700;DHT22;847;48.058;7.810;2022-09-02T02:22:15;17.20;89.90
1700;DHT22;847;48.058;7.810;2022-09-02T02:24:42;17.20;89.80
1700;DHT22;847;48.058;7.810;2022-09-02T02:27:09;17.20;89.90
1700;DHT22;847;48.058;7.810;2022-09-02T02:29:36;17.20;89.90
1700;DHT22;847;48.058;7.810;2022-09-02T02:32:04;17.20;89.90
1700;DHT22;847;48.058;7.810;2022-09-02T02:34:32;17.20;90.00
1700;DHT22;847;48.058;7.810;2022-09-02T02:36:58;17.20;90.00
1700;DHT22;847;48.058;7.810;2022-09-02T02:39:25;17.10;90.30
1700;DHT22;847;48.058;7.810;2022-09-02T02:41:52;17.00;90.70
1700;DHT22;847;48.058;7.810;2022-09-02T02:44:19;16.70;91.40
1700;DHT22;847;48.058;7.810;2022-09-02T02:46:45;16.80;91.50
1700;DHT22;847;48.058;7.810;2022-09-02T02:49:13;16.80;91.20
1700;DHT22;847;48.058;7.810;2022-09-02T02:51:40;16.80;91.00
1700;DHT22;847;48.058;7.810;2022-09-02T02:54:07;16.80;91.10
1700;DHT22;847;48.058;7.810;2022-09-02T02:56:34;16.80;91.10
1700;DHT22;847;48.058;7.810;2022-09-02T02:59:01;16.80;91.20
1700;DHT22;847;48.058;7.810;2022-09-02T03:01:28;16.70;91.20
1700;DHT22;847;48.058;7.810;2022-09-02T03:03:56;16.70;91.80
1700;DHT22;847;48.058;7.810;2022-09-02T03:06:24;16.60;91.50
1700;DHT22;847;48.058;7.810;2022-09-02T03:08:51;16.50;92.20
1700;DHT22;847;48.058;7.810;2022-09-02T03:11:19;16.70;91.50
1700;DHT22;847;48.058;7.810;2022-09-02T03:13:47;16.60;91.50
1700;DHT22;847;48.058;7.810;2022-09-02T03:16:14;16.70;91.20
1700;DHT22;847;48.058;7.810;2022-09-02T03:18:40;16.60;91.40
1700;DHT22;847;48.058;7.810;2022-09-02T03:21:08;16.50;91.60
1700;DHT22;847;48.058;7.810;2022-09-02T03:23:36;16.60;91.50
1700;DHT22;847;48.058;7.810;2022-09-02T03:26:08;16.60;91.70
1700;DHT22;847;48.058;7.810;2022-09-02T03:28:36;16.60;91.30
1700;DHT22;847;48.058;7.810;2022-09-02T03:31:03;16.40;91.60
1700;DHT22;847;48.058;7.810;2022-09-02T03:33:29;16.40;91.90
1700;DHT22;847;48.058;7.810;2022-09-02T03:35:56;16.30;92.20
1700;DHT22;847;48.058;7.810;2022-09-02T03:38:23;16.20;92.00
1700;DHT22;847;48.058;7.810;2022-09-02T03:40:51;16.20;92.30
1700;DHT22;847;48.058;7.810;2022-09-02T03:43:18;16.10;92.80
1700;DHT22;847;48.058;7.810;2022-09-02T03:45:45;16.10;93.10
1700;DHT22;847;48.058;7.810;2022-09-02T03:48:12;16.20;92.60
1700;DHT22;847;48.058;7.810;2022-09-02T03:50:41;16.20;92.80
1700;DHT22;847;48.058;7.810;2022-09-02T03:53:08;16.20;92.70
1700;DHT22;847;48.058;7.810;2022-09-02T03:55:36;16.20;92.40
1700;DHT22;847;48.058;7.810;2022-09-02T03:58:04;16.10;92.70
1700;DHT22;847;48.058;7.810;2022-09-02T04:00:31;16.10;92.50
1700;DHT22;847;48.058;7.810;2022-09-02T04:02:59;16.10;92.60
1700;DHT22;847;48.058;7.810;2022-09-02T04:05:27;16.00;92.80
1700;DHT22;847;48.058;7.810;2022-09-02T04:07:54;16.00;92.90
1700;DHT22;847;48.058;7.810;2022-09-02T04:10:21;15.90;93.20
1700;DHT22;847;48.058;7.810;2022-09-02T04:12:48;15.90;93.20
1700;DHT22;847;48.058;7.810;2022-09-02T04:15:17;15.80;93.60
1700;DHT22;847;48.058;7.810;2022-09-02T04:17:44;15.80;93.60
1700;DHT22;847;48.058;7.810;2022-09-02T04:20:12;15.70;93.90
1700;DHT22;847;48.058;7.810;2022-09-02T04:22:39;15.60;93.90
1700;DHT22;847;48.058;7.810;2022-09-02T04:25:07;15.70;93.80
1700;DHT22;847;48.058;7.810;2022-09-02T04:27:34;15.60;94.00
1700;DHT22;847;48.058;7.810;2022-09-02T04:30:02;15.60;93.80
1700;DHT22;847;48.058;7.810;2022-09-02T04:32:30;15.70;93.90
1700;DHT22;847;48.058;7.810;2022-09-02T04:34:57;15.70;93.80
1700;DHT22;847;48.058;7.810;2022-09-02T04:37:23;15.60;93.80
1700;DHT22;847;48.058;7.810;2022-09-02T04:39:51;15.70;93.80
1700;DHT22;847;48.058;7.810;2022-09-02T04:42:18;15.60;93.50
1700;DHT22;847;48.058;7.810;2022-09-02T04:44:45;15.60;93.60
1700;DHT22;847;48.058;7.810;2022-09-02T04:47:12;15.50;94.10
1700;DHT22;847;48.058;7.810;2022-09-02T04:49:40;15.50;94.40
1700;DHT22;847;48.058;7.810;2022-09-02T04:52:07;15.50;94.50
1700;DHT22;847;48.058;7.810;2022-09-02T04:54:35;15.40;95.00
1700;DHT22;847;48.058;7.810;2022-09-02T04:57:01;15.40;94.70
1700;DHT22;847;48.058;7.810;2022-09-02T04:59:28;15.50;94.60
1700;DHT22;847;48.058;7.810;2022-09-02T05:01:55;15.50;94.70
1700;DHT22;847;48.058;7.810;2022-09-02T05:04:22;15.40;94.80
1700;DHT22;847;48.058;7.810;2022-09-02T05:06:50;15.40;94.60
1700;DHT22;847;48.058;7.810;2022-09-02T05:09:19;15.30;95.20
1700;DHT22;847;48.058;7.810;2022-09-02T05:11:46;15.30;95.30
1700;DHT22;847;48.058;7.810;2022-09-02T05:14:13;15.30;95.70
1700;DHT22;847;48.058;7.810;2022-09-02T05:16:41;15.30;95.80
1700;DHT22;847;48.058;7.810;2022-09-02T05:19:10;15.30;95.80
1700;DHT22;847;48.058;7.810;2022-09-02T05:21:39;15.30;95.80
1700;DHT22;847;48.058;7.810;2022-09-02T05:24:07;15.30;96.10
1700;DHT22;847;48.058;7.810;2022-09-02T05:26:34;15.30;96.10
1700;DHT22;847;48.058;7.810;2022-09-02T05:29:04;15.40;96.20
1700;DHT22;847;48.058;7.810;2022-09-02T05:31:36;15.20;96.40
1700;DHT22;847;48.058;7.810;2022-09-02T05:34:03;15.10;96.70
1700;DHT22;847;48.058;7.810;2022-09-02T05:36:30;15.00;97.40
1700;DHT22;847;48.058;7.810;2022-09-02T05:38:57;15.10;97.50
1700;DHT22;847;48.058;7.810;2022-09-02T05:41:25;15.20;97.50
1700;DHT22;847;48.058;7.810;2022-09-02T05:43:54;15.00;98.50
1700;DHT22;847;48.058;7.810;2022-09-02T05:46:23;15.00;98.30
1700;DHT22;847;48.058;7.810;2022-09-02T05:48:51;15.20;97.70
1700;DHT22;847;48.058;7.810;2022-09-02T05:54:56;15.30;97.70
1700;DHT22;847;48.058;7.810;2022-09-02T05:57:29;15.50;97.80
1700;DHT22;847;48.058;7.810;2022-09-02T05:59:56;15.50;97.20
1700;DHT22;847;48.058;7.810;2022-09-02T06:02:24;15.60;97.30
1700;DHT22;847;48.058;7.810;2022-09-02T06:04:52;15.50;97.60
1700;DHT22;847;48.058;7.810;2022-09-02T06:07:21;15.50;99.00
1700;DHT22;847;48.058;7.810;2022-09-02T06:09:48;15.50;99.00
1700;DHT22;847;48.058;7.810;2022-09-02T06:12:16;15.50;99.00
1700;DHT22;847;48.058;7.810;2022-09-02T06:14:45;15.70;99.00
1700;DHT22;847;48.058;7.810;2022-09-02T06:17:13;15.70;98.40
1700;DHT22;847;48.058;7.810;2022-09-02T06:19:40;15.80;98.80
1700;DHT22;847;48.058;7.810;2022-09-02T06:22:08;15.90;97.80
1700;DHT22;847;48.058;7.810;2022-09-02T06:24:35;15.90;98.40
1700;DHT22;847;48.058;7.810;2022-09-02T06:27:01;16.00;98.70
1700;DHT22;847;48.058;7.810;2022-09-02T06:29:28;16.10;98.00
1700;DHT22;847;48.058;7.810;2022-09-02T06:31:57;16.20;98.40
1700;DHT22;847;48.058;7.810;2022-09-02T06:34:24;16.10;98.60
1700;DHT22;847;48.058;7.810;2022-09-02T06:36:52;16.10;98.90
1700;DHT22;847;48.058;7.810;2022-09-02T06:39:21;16.20;97.40
1700;DHT22;847;48.058;7.810;2022-09-02T06:41:50;16.30;96.60
1700;DHT22;847;48.058;7.810;2022-09-02T06:44:18;16.30;96.70
1700;DHT22;847;48.058;7.810;2022-09-02T06:46:51;16.40;96.80
1700;DHT22;847;48.058;7.810;2022-09-02T06:49:20;16.40;97.20
1700;DHT22;847;48.058;7.810;2022-09-02T06:51:51;16.50;97.20
1700;DHT22;847;48.058;7.810;2022-09-02T06:54:20;16.50;96.90
1700;DHT22;847;48.058;7.810;2022-09-02T06:56:48;16.60;96.10
1700;DHT22;847;48.058;7.810;2022-09-02T06:59:16;16.70;95.60
1700;DHT22;847;48.058;7.810;2022-09-02T07:01:43;16.70;93.30
1700;DHT22;847;48.058;7.810;2022-09-02T07:04:10;16.80;93.80
1700;DHT22;847;48.058;7.810;2022-09-02T07:06:56;16.90;93.10
1700;DHT22;847;48.058;7.810;2022-09-02T07:09:25;16.90;91.90
1700;DHT22;847;48.058;7.810;2022-09-02T07:11:56;16.90;91.70
1700;DHT22;847;48.058;7.810;2022-09-02T07:14:24;17.00;92.10
1700;DHT22;847;48.058;7.810;2022-09-02T07:16:53;17.00;91.70
1700;DHT22;847;48.058;7.810;2022-09-02T07:19:22;17.00;91.40
1700;DHT22;847;48.058;7.810;2022-09-02T07:21:50;17.00;91.20
1700;DHT22;847;48.058;7.810;2022-09-02T07:24:19;17.10;92.60
1700;DHT22;847;48.058;7.810;2022-09-02T07:26:46;17.20;91.50
1700;DHT22;847;48.058;7.810;2022-09-02T07:29:14;17.20;90.80
1700;DHT22;847;48.058;7.810;2022-09-02T07:31:43;17.20;91.40
1700;DHT22;847;48.058;7.810;2022-09-02T07:34:11;17.30;91.60
1700;DHT22;847;48.058;7.810;2022-09-02T07:36:39;17.30;91.10
1700;DHT22;847;48.058;7.810;2022-09-02T07:39:08;17.40;89.60
1700;DHT22;847;48.058;7.810;2022-09-02T07:41:38;17.50;89.60
1700;DHT22;847;48.058;7.810;2022-09-02T07:44:05;17.50;90.00
1700;DHT22;847;48.058;7.810;2022-09-02T07:46:32;17.60;90.60
1700;DHT22;847;48.058;7.810;2022-09-02T07:49:02;17.60;91.00
1700;DHT22;847;48.058;7.810;2022-09-02T07:51:30;17.70;91.50
1700;DHT22;847;48.058;7.810;2022-09-02T07:53:57;17.70;91.60
1700;DHT22;847;48.058;7.810;2022-09-02T07:56:24;17.70;90.70
1700;DHT22;847;48.058;7.810;2022-09-02T07:58:52;17.80;89.20
1700;DHT22;847;48.058;7.810;2022-09-02T08:01:21;17.90;89.70
1700;DHT22;847;48.058;7.810;2022-09-02T08:03:48;18.00;88.10
1700;DHT22;847;48.058;7.810;2022-09-02T08:06:15;18.00;87.40
1700;DHT22;847;48.058;7.810;2022-09-02T08:08:42;18.00;85.70
1700;DHT22;847;48.058;7.810;2022-09-02T08:11:09;18.10;85.50
1700;DHT22;847;48.058;7.810;2022-09-02T08:13:37;18.10;86.20
1700;DHT22;847;48.058;7.810;2022-09-02T08:16:06;18.10;84.40
1700;DHT22;847;48.058;7.810;2022-09-02T08:18:34;18.20;82.00
1700;DHT22;847;48.058;7.810;2022-09-02T08:21:00;18.20;81.70
1700;DHT22;847;48.058;7.810;2022-09-02T08:23:28;18.30;81.20
1700;DHT22;847;48.058;7.810;2022-09-02T08:25:57;18.40;82.00
1700;DHT22;847;48.058;7.810;2022-09-02T08:28:24;18.40;80.10
1700;DHT22;847;48.058;7.810;2022-09-02T08:30:52;18.50;78.60
1700;DHT22;847;48.058;7.810;2022-09-02T08:33:20;18.60;77.40
1700;DHT22;847;48.058;7.810;2022-09-02T08:35:47;18.60;76.50
1700;DHT22;847;48.058;7.810;2022-09-02T08:38:13;18.70;77.20
1700;DHT22;847;48.058;7.810;2022-09-02T08:40:41;18.80;78.30
1700;DHT22;847;48.058;7.810;2022-09-02T08:43:19;18.90;77.90
1700;DHT22;847;48.058;7.810;2022-09-02T08:45:52;19.00;78.70
1700;DHT22;847;48.058;7.810;2022-09-02T08:48:26;19.10;79.80
1700;DHT22;847;48.058;7.810;2022-09-02T08:51:01;19.20;78.60
1700;DHT22;847;48.058;7.810;2022-09-02T08:53:31;19.20;80.40
1700;DHT22;847;48.058;7.810;2022-09-02T08:56:02;19.30;78.70
1700;DHT22;847;48.058;7.810;2022-09-02T08:58:37;19.30;79.60
1700;DHT22;847;48.058;7.810;2022-09-02T09:01:09;19.40;80.40
1700;DHT22;847;48.058;7.810;2022-09-02T09:03:46;19.40;79.30
1700;DHT22;847;48.058;7.810;2022-09-02T09:06:24;19.50;76.40
1700;DHT22;847;48.058;7.810;2022-09-02T09:09:01;19.40;76.70
1700;DHT22;847;48.058;7.810;2022-09-02T09:11:36;19.50;79.80
1700;DHT22;847;48.058;7.810;2022-09-02T09:14:17;19.60;80.00
1700;DHT22;847;48.058;7.810;2022-09-02T09:16:48;19.70;79.30
1700;DHT22;847;48.058;7.810;2022-09-02T09:19:28;19.80;78.90
1700;DHT22;847;48.058;7.810;2022-09-02T09:21:57;19.80;78.70
1700;DHT22;847;48.058;7.810;2022-09-02T09:24:33;20.00;76.90
1700;DHT22;847;48.058;7.810;2022-09-02T09:27:03;20.00;75.80
1700;DHT22;847;48.058;7.810;2022-09-02T09:29:31;20.10;73.90
1700;DHT22;847;48.058;7.810;2022-09-02T09:31:59;20.10;75.50
1700;DHT22;847;48.058;7.810;2022-09-02T09:34:55;20.10;76.10
1700;DHT22;847;48.058;7.810;2022-09-02T09:37:29;20.10;76.10
1700;DHT22;847;48.058;7.810;2022-09-02T09:39:56;20.20;74.60
1700;DHT22;847;48.058;7.810;2022-09-02T09:42:31;20.20;75.20
1700;DHT22;847;48.058;7.810;2022-09-02T09:44:58;20.40;73.60
1700;DHT22;847;48.058;7.810;2022-09-02T09:47:25;20.40;73.50
1700;DHT22;847;48.058;7.810;2022-09-02T09:50:09;20.50;72.70
1700;DHT22;847;48.058;7.810;2022-09-02T09:52:36;20.50;73.40
1700;DHT22;847;48.058;7.810;2022-09-02T09:55:10;20.70;72.50
1700;DHT22;847;48.058;7.810;2022-09-02T09:57:38;20.70;71.70
1700;DHT22;847;48.058;7.810;2022-09-02T10:00:13;20.80;70.70
1700;DHT22;847;48.058;7.810;2022-09-02T10:02:48;20.80;71.60
1700;DHT22;847;48.058;7.810;2022-09-02T10:05:26;20.80;72.60
1700;DHT22;847;48.058;7.810;2022-09-02T10:07:55;20.80;73.20
1700;DHT22;847;48.058;7.810;2022-09-02T10:10:23;20.90;72.40
1700;DHT22;847;48.058;7.810;2022-09-02T10:12:53;21.00;72.40
1700;DHT22;847;48.058;7.810;2022-09-02T10:15:27;21.20;70.60
1700;DHT22;847;48.058;7.810;2022-09-02T10:18:02;21.30;70.20
1700;DHT22;847;48.058;7.810;2022-09-02T10:20:41;21.30;70.60
1700;DHT22;847;48.058;7.810;2022-09-02T10:26:13;21.40;69.30
1700;DHT22;847;48.058;7.810;2022-09-02T10:29:01;21.40;73.60
1700;DHT22;847;48.058;7.810;2022-09-02T10:31:36;21.70;70.10
1700;DHT22;847;48.058;7.810;2022-09-02T10:34:14;21.70;69.80
1700;DHT22;847;48.058;7.810;2022-09-02T10:37:02;21.80;69.60
1700;DHT22;847;48.058;7.810;2022-09-02T10:39:38;22.00;67.60
1700;DHT22;847;48.058;7.810;2022-09-02T10:42:15;21.90;68.40
1700;DHT22;847;48.058;7.810;2022-09-02T10:44:47;22.00;68.30
1700;DHT22;847;48.058;7.810;2022-09-02T10:47:19;21.90;67.60
1700;DHT22;847;48.058;7.810;2022-09-02T10:49:58;21.90;69.00
1700;DHT22;847;48.058;7.810;2022-09-02T10:52:48;21.90;68.50
1700;DHT22;847;48.058;7.810;2022-09-02T10:55:26;22.20;67.30
1700;DHT22;847;48.058;7.810;2022-09-02T10:57:59;22.50;66.60
1700;DHT22;847;48.058;7.810;2022-09-02T11:00:28;22.70;65.60
1700;DHT22;847;48.058;7.810;2022-09-02T11:03:04;22.80;66.60
1700;DHT22;847;48.058;7.810;2022-09-02T11:05:42;23.00;67.30
1700;DHT22;847;48.058;7.810;2022-09-02T11:08:16;23.20;66.50
1700;DHT22;847;48.058;7.810;2022-09-02T11:10:53;23.40;65.30
1700;DHT22;847;48.058;7.810;2022-09-02T11:13:25;23.50;65.80
1700;DHT22;847;48.058;7.810;2022-09-02T11:15:58;23.50;65.10
1700;DHT22;847;48.058;7.810;2022-09-02T11:18:32;23.40;64.10
1700;DHT22;847;48.058;7.810;2022-09-02T11:21:07;23.60;63.60
1700;DHT22;847;48.058;7.810;2022-09-02T11:23:41;23.70;64.00
1700;DHT22;847;48.058;7.810;2022-09-02T11:26:14;23.70;64.30
1700;DHT22;847;48.058;7.810;2022-09-02T11:28:47;23.80;65.00
1700;DHT22;847;48.058;7.810;2022-09-02T11:31:20;23.90;63.90
1700;DHT22;847;48.058;7.810;2022-09-02T11:33:53;23.90;63.90
1700;DHT22;847;48.058;7.810;2022-09-02T11:36:23;24.00;64.30
1700;DHT22;847;48.058;7.810;2022-09-02T11:38:54;24.10;63.50
1700;DHT22;847;48.058;7.810;2022-09-02T11:41:27;24.20;63.20
1700;DHT22;847;48.058;7.810;2022-09-02T11:47:08;24.20;64.60
1700;DHT22;847;48.058;7.810;2022-09-02T11:50:01;24.20;63.60
1700;DHT22;847;48.058;7.810;2022-09-02T11:52:44;24.30;63.20
1700;DHT22;847;48.058;7.810;2022-09-02T11:55:22;24.30;63.70
1700;DHT22;847;48.058;7.810;2022-09-02T11:57:51;24.30;63.50
1700;DHT22;847;48.058;7.810;2022-09-02T12:00:56;24.40;63.70
1700;DHT22;847;48.058;7.810;2022-09-02T12:03:27;24.50;63.40
1700;DHT22;847;48.058;7.810;2022-09-02T12:06:06;24.60;62.10
1700;DHT22;847;48.058;7.810;2022-09-02T12:09:03;24.60;62.20
1700;DHT22;847;48.058;7.810;2022-09-02T12:11:46;24.50;61.90
1700;DHT22;847;48.058;7.810;2022-09-02T12:17:41;24.60;62.40
1700;DHT22;847;48.058;7.810;2022-09-02T12:22:59;24.80;63.60
1700;DHT22;847;48.058;7.810;2022-09-02T12:25:44;24.80;61.80
1700;DHT22;847;48.058;7.810;2022-09-02T12:28:21;24.80;62.10
1700;DHT22;847;48.058;7.810;2022-09-02T12:31:10;24.80;62.20
1700;DHT22;847;48.058;7.810;2022-09-02T12:33:41;24.80;62.90
1700;DHT22;847;48.058;7.810;2022-09-02T12:39:47;25.00;62.60
1700;DHT22;847;48.058;7.810;2022-09-02T12:42:21;25.10;63.40
1700;DHT22;847;48.058;7.810;2022-09-02T12:44:55;25.20;61.80
1700;DHT22;847;48.058;7.810;2022-09-02T12:47:36;25.20;62.50
1700;DHT22;847;48.058;7.810;2022-09-02T12:50:09;25.10;63.90
1700;DHT22;847;48.058;7.810;2022-09-02T12:52:42;25.20;63.70
1700;DHT22;847;48.058;7.810;2022-09-02T12:55:15;25.20;63.40
1700;DHT22;847;48.058;7.810;2022-09-02T12:57:46;25.30;61.30
1700;DHT22;847;48.058;7.810;2022-09-02T13:00:16;25.30;62.00
1700;DHT22;847;48.058;7.810;2022-09-02T13:03:02;25.30;63.10
1700;DHT22;847;48.058;7.810;2022-09-02T13:05:42;25.40;62.80
1700;DHT22;847;48.058;7.810;2022-09-02T13:08:46;25.50;62.40
1700;DHT22;847;48.058;7.810;2022-09-02T13:17:35;25.50;62.00
1700;DHT22;847;48.058;7.810;2022-09-02T13:23:50;25.50;61.70
1700;DHT22;847;48.058;7.810;2022-09-02T13:26:37;25.60;60.20
1700;DHT22;847;48.058;7.810;2022-09-02T13:29:30;25.60;61.10
1700;DHT22;847;48.058;7.810;2022-09-02T13:32:11;25.60;61.90
1700;DHT22;847;48.058;7.810;2022-09-02T13:34:42;25.70;61.00
1700;DHT22;847;48.058;7.810;2022-09-02T13:37:27;25.70;59.40
1700;DHT22;847;48.058;7.810;2022-09-02T13:39:54;25.70;61.10
1700;DHT22;847;48.058;7.810;2022-09-02T13:42:22;25.80;61.00
1700;DHT22;847;48.058;7.810;2022-09-02T13:44:49;25.90;60.30
1700;DHT22;847;48.058;7.810;2022-09-02T13:47:17;26.00;61.10
1700;DHT22;847;48.058;7.810;2022-09-02T13:49:50;26.00;60.30
1700;DHT22;847;48.058;7.810;2022-09-02T13:52:21;26.10;60.10
1700;DHT22;847;48.058;7.810;2022-09-02T13:54:51;26.10;59.20
1700;DHT22;847;48.058;7.810;2022-09-02T13:57:23;26.10;60.30
1700;DHT22;847;48.058;7.810;2022-09-02T13:59:51;26.10;59.60
1700;DHT22;847;48.058;7.810;2022-09-02T14:02:24;26.10;60.00
1700;DHT22;847;48.058;7.810;2022-09-02T14:04:56;26.10;58.40
1700;DHT22;847;48.058;7.810;2022-09-02T14:07:29;26.10;59.30
1700;DHT22;847;48.058;7.810;2022-09-02T14:09:58;26.10;59.90
1700;DHT22;847;48.058;7.810;2022-09-02T14:12:26;26.10;59.70
1700;DHT22;847;48.058;7.810;2022-09-02T14:14:54;26.20;58.90
1700;DHT22;847;48.058;7.810;2022-09-02T14:17:22;26.30;59.60
1700;DHT22;847;48.058;7.810;2022-09-02T14:19:50;26.40;59.10
1700;DHT22;847;48.058;7.810;2022-09-02T14:22:26;27.00;60.20
1700;DHT22;847;48.058;7.810;2022-09-02T14:24:53;27.50;56.90
1700;DHT22;847;48.058;7.810;2022-09-02T14:27:22;27.80;56.30
1700;DHT22;847;48.058;7.810;2022-09-02T14:29:52;28.00;55.00
1700;DHT22;847;48.058;7.810;2022-09-02T14:32:21;28.10;56.50
1700;DHT22;847;48.058;7.810;2022-09-02T14:35:08;28.30;57.10
1700;DHT22;847;48.058;7.810;2022-09-02T14:37:49;28.50;55.70
1700;DHT22;847;48.058;7.810;2022-09-02T14:40:30;28.80;57.00
1700;DHT22;847;48.058;7.810;2022-09-02T14:42:57;28.70;55.30
1700;DHT22;847;48.058;7.810;2022-09-02T14:45:27;28.40;55.30
1700;DHT22;847;48.058;7.810;2022-09-02T14:47:54;28.60;54.60
1700;DHT22;847;48.058;7.810;2022-09-02T14:50:25;28.70;55.60
1700;DHT22;847;48.058;7.810;2022-09-02T14:52:58;28.80;54.60
1700;DHT22;847;48.058;7.810;2022-09-02T14:55:46;29.00;55.80
1700;DHT22;847;48.058;7.810;2022-09-02T14:58:15;28.60;55.90
1700;DHT22;847;48.058;7.810;2022-09-02T15:00:44;28.90;57.00
1700;DHT22;847;48.058;7.810;2022-09-02T15:03:13;29.00;53.90
1700;DHT22;847;48.058;7.810;2022-09-02T15:05:41;28.90;53.60
1700;DHT22;847;48.058;7.810;2022-09-02T15:08:09;28.60;54.20
1700;DHT22;847;48.058;7.810;2022-09-02T15:10:36;28.50;55.00
1700;DHT22;847;48.058;7.810;2022-09-02T15:13:04;28.60;56.20
1700;DHT22;847;48.058;7.810;2022-09-02T15:15:30;28.80;57.00
1700;DHT22;847;48.058;7.810;2022-09-02T15:17:57;28.60;57.10
1700;DHT22;847;48.058;7.810;2022-09-02T15:20:24;28.70;58.20
1700;DHT22;847;48.058;7.810;2022-09-02T15:22:52;28.80;57.60
1700;DHT22;847;48.058;7.810;2022-09-02T15:25:20;28.80;56.60
1700;DHT22;847;48.058;7.810;2022-09-02T15:27:47;28.90;55.60
1700;DHT22;847;48.058;7.810;2022-09-02T15:30:14;28.90;57.30
1700;DHT22;847;48.058;7.810;2022-09-02T15:32:41;29.10;56.80
1700;DHT22;847;48.058;7.810;2022-09-02T15:35:08;29.00;56.70
1700;DHT22;847;48.058;7.810;2022-09-02T15:37:35;28.90;56.40
1700;DHT22;847;48.058;7.810;2022-09-02T15:40:03;28.90;56.50
1700;DHT22;847;48.058;7.810;2022-09-02T15:42:34;28.90;57.00
1700;DHT22;847;48.058;7.810;2022-09-02T15:45:01;28.80;56.20
1700;DHT22;847;48.058;7.810;2022-09-02T15:47:29;28.70;57.90
1700;DHT22;847;48.058;7.810;2022-09-02T15:49:56;28.80;56.70
1700;DHT22;847;48.058;7.810;2022-09-02T15:52:23;28.50;58.10
1700;DHT22;847;48.058;7.810;2022-09-02T15:54:50;28.60;58.60
1700;DHT22;847;48.058;7.810;2022-09-02T15:57:18;28.60;58.90
1700;DHT22;847;48.058;7.810;2022-09-02T15:59:47;28.30;57.20
1700;DHT22;847;48.058;7.810;2022-09-02T16:02:13;27.90;59.20
1700;DHT22;847;48.058;7.810;2022-09-02T16:04:40;28.10;60.40
1700;DHT22;847;48.058;7.810;2022-09-02T16:07:07;28.00;59.80
1700;DHT22;847;48.058;7.810;2022-09-02T16:09:34;27.90;59.50
1700;DHT22;847;48.058;7.810;2022-09-02T16:12:01;27.60;59.90
1700;DHT22;847;48.058;7.810;2022-09-02T16:14:28;27.30;58.50
1700;DHT22;847;48.058;7.810;2022-09-02T16:16:56;27.00;58.50
1700;DHT22;847;48.058;7.810;2022-09-02T16:19:24;26.60;58.60
1700;DHT22;847;48.058;7.810;2022-09-02T16:21:52;26.40;59.20
1700;DHT22;847;48.058;7.810;2022-09-02T16:24:19;26.20;59.50
1700;DHT22;847;48.058;7.810;2022-09-02T16:26:47;25.80;60.00
1700;DHT22;847;48.058;7.810;2022-09-02T16:29:15;25.60;61.10
1700;DHT22;847;48.058;7.810;2022-09-02T16:31:43;25.60;61.40
1700;DHT22;847;48.058;7.810;2022-09-02T16:34:13;25.40;62.10
1700;DHT22;847;48.058;7.810;2022-09-02T16:36:42;25.30;62.90
1700;DHT22;847;48.058;7.810;2022-09-02T16:39:09;25.30;63.10
1700;DHT22;847;48.058;7.810;2022-09-02T16:41:38;25.20;63.60
1700;DHT22;847;48.058;7.810;2022-09-02T16:44:07;25.20;63.90
1700;DHT22;847;48.058;7.810;2022-09-02T16:46:36;25.10;64.50
1700;DHT22;847;48.058;7.810;2022-09-02T16:49:05;25.00;64.60
1700;DHT22;847;48.058;7.810;2022-09-02T16:51:33;25.00;64.80
1700;DHT22;847;48.058;7.810;2022-09-02T16:54:02;24.90;65.40
1700;DHT22;847;48.058;7.810;2022-09-02T16:56:30;24.80;65.80
1700;DHT22;847;48.058;7.810;2022-09-02T16:58:59;25.00;65.50
1700;DHT22;847;48.058;7.810;2022-09-02T17:01:27;24.90;65.40
1700;DHT22;847;48.058;7.810;2022-09-02T17:03:54;24.80;66.60
1700;DHT22;847;48.058;7.810;2022-09-02T17:06:21;24.70;66.20